Time;durP1;ratioP1;P1;durP2;ratioP2;P2;SDS_P1;SDS_P2;PMS_P1;PMS_P2;Temp;Humidity;BMP_temperature;BMP_pressure;BME280_temperature;BME280_humidity;BME280_pressure;Samples;Min_cycle;Max_cycle;Signal;HPM_P1;HPM_P2
2022/09/07 00:01:03;;;;;;;3.30;2.90;;;;;;;9.40;75.59;99526.66;5090113;28;20028;-63
2022/09/07 00:03:28;;;;;;;4.13;2.97;;;;;;;9.39;75.77;99519.78;5086424;28;20025;-62
2022/09/07 00:05:54;;;;;;;3.50;3.20;;;;;;;9.33;76.11;99518.19;5086336;28;20092;-61
2022/09/07 00:08:22;;;;;;;3.47;2.92;;;;;;;9.32;77.29;99536.31;5085417;28;20314;-62
2022/09/07 00:11:03;;;;;;;3.47;3.17;;;;;;;9.28;75.07;99534.66;5086238;28;20244;-61
2022/09/07 00:13:31;;;;;;;4.18;2.97;;;;;;;9.35;75.46;99512.09;5086179;28;20061;-62
2022/09/07 00:15:57;;;;;;;4.47;3.15;;;;;;;9.31;75.79;99504.41;5086478;28;20025;-61
2022/09/07 00:18:23;;;;;;;4.72;3.17;;;;;;;9.25;75.67;99493.34;5086186;28;20347;-61
2022/09/07 00:21:04;;;;;;;5.32;3.45;;;;;;;9.35;74.88;99507.81;5086257;28;20029;-61
2022/09/07 00:23:30;;;;;;;4.30;3.30;;;;;;;9.26;77.10;99495.91;5086109;28;20033;-61
2022/09/07 00:26:25;;;;;;;3.90;3.40;;;;;;;9.26;76.25;99497.63;5086023;28;20280;-61
2022/09/07 00:28:54;;;;;;;3.50;3.03;;;;;;;9.27;75.82;99494.19;5085967;28;20086;-63
2022/09/07 00:31:22;;;;;;;3.92;3.20;;;;;;;9.30;75.78;99504.44;5085633;28;20025;-64
2022/09/07 00:33:48;;;;;;;3.45;3.15;;;;;;;9.34;76.21;99493.19;5085962;28;20074;-63
2022/09/07 00:36:16;;;;;;;4.53;3.50;;;;;;;9.31;75.01;99490.66;5084675;28;20028;-63
2022/09/07 00:38:42;;;;;;;3.83;3.42;;;;;;;9.36;74.86;99493.16;5086013;28;20031;-63
2022/09/07 00:41:08;;;;;;;3.88;3.47;;;;;;;9.36;75.21;99491.41;5085520;28;20032;-63
2022/09/07 00:43:44;;;;;;;4.15;3.33;;;;;;;9.13;75.53;99447.94;5087293;28;20029;-64
2022/09/07 00:46:14;;;;;;;6.70;3.90;;;;;;;9.36;75.89;99486.22;5105858;28;20024;-63
2022/09/07 00:49:07;;;;;;;3.20;2.95;;;;;;;9.04;76.86;99454.13;5086176;28;20051;-64
2022/09/07 00:52:06;;;;;;;4.43;3.50;;;;;;;9.34;75.72;99493.19;5084199;28;20191;-63
2022/09/07 00:54:40;;;;;;;3.80;3.20;;;;;;;9.31;75.25;99498.41;5073529;28;20325;-64
2022/09/07 00:57:06;;;;;;;3.50;3.20;;;;;;;9.30;75.76;99488.94;5085345;28;20320;-63
2022/09/07 00:59:38;;;;;;;3.80;3.05;;;;;;;9.35;75.69;99494.88;5085693;28;20052;-63
2022/09/07 01:02:04;;;;;;;3.28;2.97;;;;;;;9.25;74.52;99477.84;5085307;28;20241;-62
2022/09/07 01:04:31;;;;;;;3.40;2.97;;;;;;;9.31;75.70;99483.75;5085067;28;20028;-60
2022/09/07 01:06:58;;;;;;;3.40;3.10;;;;;;;9.32;75.18;99482.03;5084511;28;20036;-61
2022/09/07 01:09:26;;;;;;;4.15;3.13;;;;;;;9.36;74.75;99475.88;5085076;28;20039;-61
2022/09/07 01:11:53;;;;;;;3.53;3.13;;;;;;;9.33;75.29;99491.47;5085037;28;20028;-62
2022/09/07 01:14:24;;;;;;;3.38;2.90;;;;;;;9.27;73.84;99458.00;5084947;28;20021;-62
2022/09/07 01:17:40;;;;;;;4.93;3.30;;;;;;;8.98;75.30;99412.94;5085048;28;20173;-62
2022/09/07 01:20:33;;;;;;;5.05;3.10;;;;;;;9.34;75.06;99475.09;5072723;28;20116;-64
2022/09/07 01:23:31;;;;;;;3.08;2.80;;;;;;;9.29;75.30;99467.44;5084731;28;20032;-65
2022/09/07 01:26:31;;;;;;;4.10;3.20;;;;;;;9.18;74.32;99465.91;5077455;28;20321;-64
2022/09/07 01:29:22;;;;;;;4.53;3.10;;;;;;;9.09;74.95;99442.00;5085524;28;20098;-63
2022/09/07 01:32:00;;;;;;;4.03;3.38;;;;;;;9.30;75.43;99465.69;5084613;28;20024;-63
2022/09/07 01:34:26;;;;;;;4.00;3.33;;;;;;;9.29;75.50;99463.97;5084678;28;20024;-64
2022/09/07 01:37:10;;;;;;;3.08;2.80;;;;;;;9.33;75.65;99456.16;5084775;28;20020;-63
2022/09/07 01:39:47;;;;;;;3.55;3.25;;;;;;;9.26;74.74;99448.53;5084659;28;20034;-63
2022/09/07 01:42:16;;;;;;;4.10;2.92;;;;;;;9.02;74.77;99430.06;5084577;28;20321;-63
2022/09/07 01:44:59;;;;;;;4.03;3.35;;;;;;;8.88;75.08;99408.78;5084516;28;20371;-63
2022/09/07 01:47:37;;;;;;;3.10;2.83;;;;;;;9.20;75.38;99448.66;5084301;28;20044;-63
2022/09/07 01:50:36;;;;;;;4.47;3.55;;;;;;;9.19;75.30;99452.13;5084467;28;20105;-63
2022/09/07 01:53:18;;;;;;;4.05;3.50;;;;;;;8.89;75.38;99402.75;5082762;28;20032;-61
2022/09/07 01:56:23;;;;;;;3.30;3.00;;;;;;;9.22;74.49;99452.06;5084281;28;20039;-61
2022/09/07 01:58:56;;;;;;;4.05;3.58;;;;;;;8.95;76.15;99439.66;5076264;28;20038;-63
2022/09/07 02:01:31;;;;;;;3.40;3.10;;;;;;;8.64;75.49;99378.25;5093361;28;20035;-63
2022/09/07 02:04:07;;;;;;;5.28;3.60;;;;;;;8.78;74.64;99390.06;5084225;28;20332;-63
2022/09/07 02:07:01;;;;;;;4.78;3.50;;;;;;;9.06;75.98;99436.84;5084092;28;20363;-63
2022/09/07 02:09:40;;;;;;;3.53;2.80;;;;;;;9.10;75.11;99443.66;5084193;28;20040;-65
2022/09/07 02:12:23;;;;;;;4.43;3.50;;;;;;;8.79;75.94;99392.63;5097904;28;20087;-65
2022/09/07 02:14:56;;;;;;;3.75;3.08;;;;;;;8.70;75.16;99379.88;5092518;28;20070;-66
2022/09/07 02:17:32;;;;;;;3.30;2.95;;;;;;;8.97;75.66;99416.38;5091053;28;20237;-65
2022/09/07 02:20:10;;;;;;;4.68;3.13;;;;;;;9.12;76.27;99447.09;5095831;28;20020;-65
2022/09/07 02:22:41;;;;;;;3.28;2.97;;;;;;;9.09;76.41;99442.00;5085193;28;20052;-65
2022/09/07 02:25:09;;;;;;;3.72;3.17;;;;;;;8.76;76.24;99384.91;5081175;28;20071;-65
2022/09/07 02:27:42;;;;;;;4.50;3.25;;;;;;;8.79;74.84;99387.47;5081367;28;20032;-65
2022/09/07 02:30:08;;;;;;;3.85;3.50;;;;;;;9.07;75.32;99437.72;5097938;28;20035;-64
2022/09/07 02:32:34;;;;;;;4.78;3.47;;;;;;;9.12;74.48;99436.75;5102102;28;20027;-64
2022/09/07 02:35:01;;;;;;;3.35;3.03;;;;;;;9.10;74.86;99433.34;5099129;28;20323;-65
2022/09/07 02:37:28;;;;;;;6.22;3.15;;;;;;;9.09;75.29;99436.81;5083534;28;20328;-63
2022/09/07 02:39:54;;;;;;;5.57;3.53;;;;;;;9.10;75.35;99435.91;5083568;28;20021;-62
2022/09/07 02:42:20;;;;;;;4.03;3.45;;;;;;;9.03;75.97;99439.50;5083519;28;20024;-62
2022/09/07 02:44:47;;;;;;;4.18;3.42;;;;;;;9.09;76.04;99436.81;5083499;28;20062;-62
2022/09/07 02:47:13;;;;;;;4.40;3.47;;;;;;;9.10;75.90;99427.31;5089667;28;20024;-65
2022/09/07 02:49:53;;;;;;;6.40;3.25;;;;;;;9.09;75.93;99429.06;5103652;28;20102;-65
2022/09/07 02:52:37;;;;;;;3.55;3.13;;;;;;;9.11;75.72;99435.03;5103816;28;20024;-65
2022/09/07 02:55:37;;;;;;;4.00;3.33;;;;;;;9.04;75.14;99428.28;5069524;28;20401;-65
2022/09/07 02:58:32;;;;;;;3.70;3.33;;;;;;;9.04;75.77;99430.88;5063284;28;20041;-66
2022/09/07 03:01:08;;;;;;;3.55;3.25;;;;;;;9.03;75.57;99425.75;5069670;28;20117;-62
2022/09/07 03:04:01;;;;;;;5.53;3.45;;;;;;;9.06;75.22;99423.09;5083196;28;20092;-62
2022/09/07 03:06:34;;;;;;;3.85;3.53;;;;;;;8.69;75.29;99367.84;5083111;28;20028;-62
2022/09/07 03:09:06;;;;;;;3.20;2.90;;;;;;;8.76;75.28;99377.16;5082222;28;20225;-61
2022/09/07 03:11:35;;;;;;;4.37;3.40;;;;;;;8.67;75.21;99369.59;5076311;28;20040;-60
2022/09/07 03:14:22;;;;;;;3.80;3.17;;;;;;;8.84;75.54;99387.38;5063102;28;20063;-60
2022/09/07 03:16:54;;;;;;;3.95;3.45;;;;;;;9.05;75.19;99430.00;5068462;28;20025;-60
2022/09/07 03:19:20;;;;;;;4.13;3.30;;;;;;;9.05;75.63;99414.50;5100153;28;20037;-60
2022/09/07 03:21:46;;;;;;;4.13;3.30;;;;;;;9.06;75.00;99413.59;5082982;28;20070;-62
2022/09/07 03:24:11;;;;;;;3.50;3.20;;;;;;;9.08;75.89;99417.03;5083011;28;20084;-62
2022/09/07 03:26:41;;;;;;;3.97;3.45;;;;;;;9.05;75.42;99413.63;5083002;28;20029;-62
2022/09/07 03:29:07;;;;;;;3.95;3.58;;;;;;;9.04;75.19;99411.97;5083814;28;20029;-62
2022/09/07 03:31:35;;;;;;;4.28;3.33;;;;;;;9.04;75.08;99419.72;5087149;28;20202;-62
2022/09/07 03:34:01;;;;;;;5.30;3.25;;;;;;;9.11;76.09;99418.69;5087168;28;20124;-64
2022/09/07 03:36:29;;;;;;;4.45;3.40;;;;;;;8.78;74.83;99380.59;5083189;28;20084;-64
2022/09/07 03:38:55;;;;;;;4.07;3.00;;;;;;;8.98;74.99;99412.94;5078423;28;20025;-64
2022/09/07 03:41:20;;;;;;;3.00;2.80;;;;;;;8.97;75.66;99396.56;5087128;28;20329;-63
2022/09/07 03:43:47;;;;;;;6.90;2.70;;;;;;;9.07;75.51;99388.66;5086576;28;20051;-64
2022/09/07 03:46:16;;;;;;;3.75;3.22;;;;;;;9.02;75.76;99398.19;5086735;28;20016;-64
2022/09/07 03:48:42;;;;;;;3.50;3.20;;;;;;;8.92;75.26;99390.66;5085475;28;20024;-63
2022/09/07 03:51:09;;;;;;;5.43;2.92;;;;;;;8.93;75.94;99394.91;5086737;28;20401;-62
2022/09/07 03:53:41;;;;;;;3.17;2.88;;;;;;;9.03;76.33;99389.59;5086603;28;20020;-61
2022/09/07 03:56:09;;;;;;;3.83;3.38;;;;;;;8.67;75.12;99332.63;5086406;28;20214;-59
2022/09/07 03:58:36;;;;;;;4.15;3.50;;;;;;;9.03;75.40;99402.50;5086482;28;20074;-60
2022/09/07 04:01:08;;;;;;;3.40;3.10;;;;;;;8.66;76.46;99352.41;5086723;28;20070;-61
2022/09/07 04:03:33;;;;;;;3.38;3.08;;;;;;;9.05;76.29;99385.22;5086874;28;20110;-64
2022/09/07 04:06:00;;;;;;;3.13;2.75;;;;;;;9.04;76.60;99397.31;5086405;28;20309;-64
2022/09/07 04:08:31;;;;;;;3.70;2.72;;;;;;;9.14;76.48;99392.81;5086249;28;20031;-64
2022/09/07 04:10:58;;;;;;;3.17;2.88;;;;;;;8.94;75.93;99400.94;5086286;28;20101;-65
2022/09/07 04:13:24;;;;;;;3.22;2.75;;;;;;;9.12;76.11;99397.13;5086178;28;20032;-63
2022/09/07 04:15:50;;;;;;;4.07;2.70;;;;;;;9.19;76.03;99395.28;5101838;28;20024;-63
2022/09/07 04:18:16;;;;;;;3.35;2.95;;;;;;;9.21;75.77;99390.97;5100656;28;20317;-62
2022/09/07 04:20:43;;;;;;;4.18;3.20;;;;;;;9.23;74.93;99390.00;5091997;28;20051;-62
2022/09/07 04:23:08;;;;;;;3.13;2.78;;;;;;;9.25;74.59;99396.03;5085977;28;20024;-63
2022/09/07 04:25:34;;;;;;;3.22;2.80;;;;;;;9.27;75.71;99388.22;5084826;28;20362;-63
2022/09/07 04:28:00;;;;;;;4.18;3.10;;;;;;;9.25;75.46;99389.97;5086026;28;20040;-63
2022/09/07 04:30:25;;;;;;;5.50;3.20;;;;;;;9.26;75.47;99389.09;5085796;28;20025;-63
2022/09/07 04:32:51;;;;;;;3.35;3.05;;;;;;;9.24;74.63;99391.72;5096725;28;20221;-63
2022/09/07 04:35:17;;;;;;;3.92;2.92;;;;;;;9.17;75.55;99378.97;5099929;28;20020;-64
2022/09/07 04:37:43;;;;;;;3.22;3.00;;;;;;;9.29;75.86;99387.31;5084566;28;20031;-63
2022/09/07 04:40:09;;;;;;;4.20;3.33;;;;;;;9.31;75.26;99376.94;5076253;28;20039;-64
2022/09/07 04:42:37;;;;;;;3.22;2.92;;;;;;;9.31;75.80;99384.72;5071925;28;20043;-63
2022/09/07 04:45:03;;;;;;;3.70;3.30;;;;;;;9.40;75.15;99375.91;5065637;28;20306;-61
2022/09/07 04:47:29;;;;;;;3.28;2.97;;;;;;;9.49;75.17;99380.84;5073098;28;20055;-62
2022/09/07 04:49:55;;;;;;;3.15;2.85;;;;;;;9.54;75.34;99380.78;5081024;28;20052;-61
2022/09/07 04:52:22;;;;;;;3.83;3.05;;;;;;;9.59;74.65;99394.44;5085567;28;20028;-64
2022/09/07 04:54:49;;;;;;;3.30;3.00;;;;;;;9.53;75.22;99381.66;5099590;28;20016;-65
2022/09/07 04:57:15;;;;;;;3.30;3.00;;;;;;;9.60;74.81;99381.47;5085285;28;20040;-62
2022/09/07 04:59:41;;;;;;;3.47;3.17;;;;;;;9.73;74.55;99376.03;5094333;28;20043;-61
2022/09/07 05:02:06;;;;;;;3.70;3.28;;;;;;;9.83;74.99;99382.69;5087846;28;20066;-62
2022/09/07 05:04:35;;;;;;;5.35;3.42;;;;;;;9.84;74.45;99372.28;5085310;28;20117;-61
2022/09/07 05:07:01;;;;;;;3.55;3.25;;;;;;;9.87;73.43;99370.53;5084964;28;20025;-66
2022/09/07 05:09:26;;;;;;;3.55;3.08;;;;;;;9.94;73.81;99366.91;5084964;28;20094;-66
2022/09/07 05:11:52;;;;;;;3.50;3.20;;;;;;;10.08;73.12;99374.34;5084636;28;20066;-64
2022/09/07 05:14:18;;;;;;;5.68;3.58;;;;;;;10.04;73.63;99363.22;5091276;28;20031;-64
2022/09/07 05:16:44;;;;;;;3.70;3.40;;;;;;;9.98;73.08;99361.63;5103990;28;20020;-61
2022/09/07 05:19:12;;;;;;;4.53;3.33;;;;;;;10.15;73.39;99368.97;5084885;28;20043;-61
2022/09/07 05:21:37;;;;;;;3.85;3.13;;;;;;;10.17;73.04;99374.13;5084741;28;20301;-60
2022/09/07 05:24:04;;;;;;;4.55;3.35;;;;;;;10.21;73.32;99377.50;5096739;28;20039;-61
2022/09/07 05:26:32;;;;;;;3.95;3.25;;;;;;;10.06;73.46;99363.19;5104751;28;20051;-61
2022/09/07 05:29:02;;;;;;;4.88;3.60;;;;;;;10.15;73.33;99374.16;5102107;28;20045;-61
2022/09/07 05:31:29;;;;;;;6.47;3.60;;;;;;;10.26;73.49;99375.63;5084793;28;20217;-63
2022/09/07 05:33:58;;;;;;;4.22;3.20;;;;;;;10.32;73.24;99375.47;5084617;28;20309;-61
2022/09/07 05:36:25;;;;;;;3.78;3.45;;;;;;;10.25;72.82;99376.53;5084617;28;20020;-60
2022/09/07 05:38:52;;;;;;;3.85;3.45;;;;;;;10.28;72.61;99381.63;5066397;28;20036;-61
2022/09/07 05:41:23;;;;;;;6.57;3.40;;;;;;;10.22;72.95;99374.00;5083709;28;20066;-60
2022/09/07 05:43:49;;;;;;;3.70;3.40;;;;;;;10.35;73.22;99378.03;5083577;28;20035;-60
2022/09/07 05:46:16;;;;;;;3.90;3.22;;;;;;;10.29;72.66;99373.81;5083799;28;20398;-61
2022/09/07 05:48:42;;;;;;;5.57;3.40;;;;;;;10.25;72.94;99381.69;5116652;28;20034;-61
2022/09/07 05:51:09;;;;;;;5.40;3.80;;;;;;;10.13;72.89;99363.00;5090087;28;20070;-59
2022/09/07 05:53:36;;;;;;;4.63;3.85;;;;;;;10.25;73.25;99371.34;5091153;28;20035;-59
2022/09/07 05:56:03;;;;;;;4.28;3.60;;;;;;;10.32;72.72;99368.56;5089651;28;20094;-62
2022/09/07 05:58:29;;;;;;;8.23;4.22;;;;;;;10.40;72.66;99363.19;5083454;28;20325;-59
2022/09/07 06:01:07;;;;;;;5.97;4.38;;;;;;;10.08;72.94;99310.50;5082561;28;20032;-61
2022/09/07 06:03:34;;;;;;;5.13;3.90;;;;;;;10.40;71.92;99367.53;5083871;28;20031;-60
2022/09/07 06:06:04;;;;;;;4.30;3.90;;;;;;;10.47;71.56;99354.38;5083898;28;20140;-60
2022/09/07 06:08:31;;;;;;;4.60;3.67;;;;;;;10.46;71.67;99337.16;5083626;28;20082;-60
2022/09/07 06:10:57;;;;;;;5.32;4.68;;;;;;;10.68;71.95;99359.88;5083684;28;20032;-59
2022/09/07 06:13:23;;;;;;;5.22;3.67;;;;;;;10.76;72.37;99360.53;5083796;28;20032;-60
2022/09/07 06:15:49;;;;;;;5.68;4.30;;;;;;;10.56;72.77;99357.63;5101860;28;20263;-60
2022/09/07 06:18:16;;;;;;;5.30;4.05;;;;;;;10.68;71.33;99362.47;5090735;28;20032;-60
2022/09/07 06:20:41;;;;;;;4.32;3.88;;;;;;;10.61;71.76;99366.13;5082910;28;20109;-60
2022/09/07 06:23:07;;;;;;;7.47;4.18;;;;;;;10.70;71.95;99368.47;5087458;28;20027;-60
2022/09/07 06:25:33;;;;;;;9.68;3.78;;;;;;;10.70;71.41;99371.03;5103880;28;20028;-60
2022/09/07 06:27:58;;;;;;;7.78;4.20;;;;;;;10.75;71.04;99363.16;5084454;28;20020;-59
2022/09/07 06:30:24;;;;;;;5.35;4.78;;;;;;;10.85;71.29;99360.25;5098084;28;20035;-60
2022/09/07 06:32:50;;;;;;;6.70;4.30;;;;;;;10.97;71.69;99360.81;5094051;28;20119;-59
2022/09/07 06:35:16;;;;;;;6.78;4.30;;;;;;;11.02;70.75;99356.38;5083525;28;20082;-59
2022/09/07 06:37:42;;;;;;;6.57;4.38;;;;;;;10.88;70.53;99352.41;5083141;28;20099;-60
2022/09/07 06:40:10;;;;;;;4.82;3.95;;;;;;;10.96;70.73;99359.09;5080119;28;20095;-62
2022/09/07 06:42:37;;;;;;;5.63;4.30;;;;;;;11.00;70.69;99356.41;5084242;28;20028;-61
2022/09/07 06:45:03;;;;;;;8.25;4.20;;;;;;;11.05;70.15;99354.53;5076565;28;20099;-61
2022/09/07 06:47:29;;;;;;;5.05;4.28;;;;;;;11.06;69.58;99355.38;5076888;28;20096;-62
2022/09/07 06:49:55;;;;;;;5.85;3.88;;;;;;;11.27;69.55;99350.47;5101481;28;20217;-62
2022/09/07 06:52:20;;;;;;;4.15;3.67;;;;;;;11.29;69.60;99352.13;5083456;28;20024;-61
2022/09/07 06:54:46;;;;;;;5.95;3.97;;;;;;;11.41;69.28;99340.50;5083108;28;20040;-63
2022/09/07 06:57:12;;;;;;;5.53;4.22;;;;;;;11.57;68.56;99348.66;5082543;28;20352;-63
2022/09/07 06:59:38;;;;;;;5.43;3.80;;;;;;;11.56;67.78;99342.63;5077151;28;20041;-61
2022/09/07 07:02:04;;;;;;;4.90;3.95;;;;;;;11.80;68.00;99354.88;5072502;28;20043;-62
2022/09/07 07:04:30;;;;;;;9.10;5.50;;;;;;;11.84;67.72;99354.75;5076064;28;20222;-62
2022/09/07 07:06:56;;;;;;;4.15;3.70;;;;;;;11.65;67.42;99349.28;5066366;28;20037;-62
2022/09/07 07:09:21;;;;;;;4.53;3.90;;;;;;;11.78;67.36;99349.75;5076692;28;20329;-62
2022/09/07 07:11:47;;;;;;;5.80;4.72;;;;;;;11.92;67.69;99347.56;5082903;28;20193;-61
2022/09/07 07:14:14;;;;;;;9.10;4.80;;;;;;;12.03;66.91;99344.66;5082803;28;20027;-61
2022/09/07 07:16:39;;;;;;;6.90;3.78;;;;;;;12.06;66.29;99328.13;5082952;28;20032;-61
2022/09/07 07:19:05;;;;;;;4.45;3.55;;;;;;;12.24;65.69;99345.69;5082551;28;20078;-62
2022/09/07 07:21:31;;;;;;;4.03;3.72;;;;;;;12.27;65.30;99344.75;5097119;28;20110;-62
2022/09/07 07:23:56;;;;;;;5.75;4.35;;;;;;;12.21;65.43;99340.59;5080575;28;20064;-61
2022/09/07 07:26:25;;;;;;;7.03;3.90;;;;;;;12.19;64.73;99337.19;5088015;28;20032;-61
2022/09/07 07:28:53;;;;;;;7.38;3.90;;;;;;;12.17;65.10;99349.38;5081571;28;20206;-61
2022/09/07 07:31:21;;;;;;;4.97;4.00;;;;;;;12.25;65.16;99347.34;5082253;28;20031;-61
2022/09/07 07:33:47;;;;;;;4.90;3.78;;;;;;;12.25;65.51;99343.94;5080583;28;20047;-61
2022/09/07 07:36:21;;;;;;;8.18;3.80;;;;;;;11.84;64.47;99304.59;5093552;28;20024;-61
2022/09/07 07:38:49;;;;;;;6.82;3.65;;;;;;;11.89;65.94;99287.97;5092357;28;20032;-61
2022/09/07 07:41:17;;;;;;;6.93;3.80;;;;;;;12.17;65.92;99335.53;5081407;28;20025;-60
2022/09/07 07:43:43;;;;;;;4.72;3.30;;;;;;;12.01;65.92;99348.19;5082210;28;20034;-62
2022/09/07 07:46:12;;;;;;;5.43;3.47;;;;;;;12.01;65.02;99348.19;5081772;28;20456;-61
2022/09/07 07:48:37;;;;;;;4.78;3.60;;;;;;;12.12;65.28;99348.69;5081891;28;20066;-62
2022/09/07 07:51:06;;;;;;;5.50;3.83;;;;;;;11.74;65.55;99299.72;5083498;28;20033;-61
2022/09/07 07:53:34;;;;;;;7.95;3.80;;;;;;;12.11;64.21;99344.38;5081970;28;20024;-60
2022/09/07 07:56:00;;;;;;;7.05;3.70;;;;;;;12.23;64.78;99336.19;5082298;28;20066;-61
2022/09/07 07:58:29;;;;;;;4.10;3.15;;;;;;;12.08;64.50;99344.50;5080148;28;20036;-61
2022/09/07 08:01:00;;;;;;;9.02;3.28;;;;;;;12.20;64.91;99325.03;5077391;28;20020;-61
2022/09/07 08:03:26;;;;;;;9.95;3.40;;;;;;;12.39;63.72;99326.13;5080329;28;20020;-61
2022/09/07 08:05:52;;;;;;;5.22;2.90;;;;;;;12.43;63.44;99329.47;5081934;28;20056;-62
2022/09/07 08:08:18;;;;;;;7.55;3.47;;;;;;;12.52;63.28;99317.91;5082342;28;20060;-62
2022/09/07 08:10:46;;;;;;;4.80;3.03;;;;;;;12.60;62.95;99326.28;5082464;28;20341;-62
2022/09/07 08:13:13;;;;;;;7.00;2.97;;;;;;;12.57;62.11;99321.19;5081336;28;20024;-62
2022/09/07 08:15:45;;;;;;;5.43;2.58;;;;;;;12.60;62.56;99305.50;5088155;28;20052;-62
2022/09/07 08:18:12;;;;;;;5.13;2.50;;;;;;;12.63;62.61;99315.78;5085832;28;20361;-61
2022/09/07 08:20:42;;;;;;;3.83;2.72;;;;;;;12.58;60.99;99302.09;5085111;28;20043;-61
2022/09/07 08:23:07;;;;;;;3.35;2.58;;;;;;;12.47;61.69;99310.28;5084966;28;20028;-61
2022/09/07 08:25:34;;;;;;;5.55;2.75;;;;;;;12.40;61.69;99306.22;5085626;28;20029;-61
2022/09/07 08:28:00;;;;;;;3.75;2.60;;;;;;;12.47;61.87;99301.63;5085511;28;20024;-61
2022/09/07 08:30:26;;;;;;;2.72;2.40;;;;;;;12.44;62.76;99284.41;5084074;28;20016;-61
2022/09/07 08:32:52;;;;;;;4.68;2.58;;;;;;;12.73;61.53;99301.53;5087593;28;20684;-60
2022/09/07 08:35:18;;;;;;;7.13;2.70;;;;;;;12.95;59.88;99291.22;5084311;28;20027;-60
2022/09/07 08:37:44;;;;;;;2.88;2.33;;;;;;;13.23;60.56;99290.13;5084473;28;20047;-61
2022/09/07 08:40:15;;;;;;;3.92;2.88;;;;;;;13.34;59.78;99304.47;5085021;28;20217;-61
2022/09/07 08:43:18;;;;;;;5.65;3.38;;;;;;;13.17;59.18;99293.00;5082258;28;20033;-61
2022/09/07 08:45:55;;;;;;;6.55;2.60;;;;;;;13.19;59.15;99293.75;5082571;28;20025;-62
2022/09/07 08:48:30;;;;;;;3.22;2.33;;;;;;;12.99;58.82;99233.91;5083420;28;20313;-61
2022/09/07 08:51:21;;;;;;;2.55;2.00;;;;;;;13.30;58.15;99304.59;5080538;28;20035;-63
2022/09/07 08:53:48;;;;;;;2.88;2.00;;;;;;;13.18;57.75;99268.69;5081861;28;20020;-62
2022/09/07 08:56:28;;;;;;;4.03;2.50;;;;;;;13.28;58.71;99271.75;5084442;28;20043;-60
2022/09/07 08:58:54;;;;;;;4.63;2.22;;;;;;;13.48;59.35;99280.56;5084596;28;20036;-62
2022/09/07 09:01:39;;;;;;;3.33;1.95;;;;;;;13.13;57.75;99231.63;5084909;28;20039;-62
2022/09/07 09:04:25;;;;;;;4.18;1.88;;;;;;;13.09;57.39;99238.66;5082710;28;20210;-62
2022/09/07 09:06:59;;;;;;;2.97;2.03;;;;;;;13.39;56.91;99277.41;5100801;28;20020;-62
2022/09/07 09:09:45;;;;;;;3.05;1.88;;;;;;;13.45;56.04;99279.78;5090240;28;20024;-62
2022/09/07 09:12:21;;;;;;;3.42;1.70;;;;;;;13.39;56.30;99289.59;5083115;28;20028;-61
2022/09/07 09:14:46;;;;;;;2.03;1.73;;;;;;;13.29;56.18;99279.50;5084179;28;20321;-61
2022/09/07 09:17:31;;;;;;;1.85;1.67;;;;;;;13.25;55.60;99279.69;5084409;28;20116;-61
2022/09/07 09:20:18;;;;;;;3.17;2.33;;;;;;;13.18;56.82;99286.03;5083382;28;20025;-61
2022/09/07 09:22:44;;;;;;;3.45;1.70;;;;;;;13.07;57.40;99281.25;5084209;28;20100;-61
2022/09/07 09:25:18;;;;;;;2.25;2.05;;;;;;;12.99;54.86;99278.09;5085390;28;20191;-61
2022/09/07 09:27:43;;;;;;;3.05;1.50;;;;;;;12.95;55.52;99277.34;5085918;28;20052;-61
2022/09/07 09:30:14;;;;;;;2.63;1.75;;;;;;;12.94;54.92;99253.13;5083938;28;20024;-60
2022/09/07 09:32:43;;;;;;;2.88;1.75;;;;;;;12.88;53.97;99237.78;5084662;28;20035;-61
2022/09/07 09:35:11;;;;;;;4.47;1.88;;;;;;;13.15;54.60;99279.19;5081706;28;20220;-61
2022/09/07 09:37:38;;;;;;;8.77;2.25;;;;;;;13.10;53.17;99273.34;5084346;28;20024;-60
2022/09/07 09:40:08;;;;;;;1.70;1.60;;;;;;;12.83;54.27;99226.69;5083413;28;20047;-60
2022/09/07 09:42:37;;;;;;;4.03;1.52;;;;;;;13.06;54.51;99287.34;5082322;28;20027;-61
2022/09/07 09:45:13;;;;;;;2.58;1.60;;;;;;;12.80;54.38;99229.41;5083539;28;20081;-60
2022/09/07 09:47:39;;;;;;;1.70;1.42;;;;;;;13.06;53.27;99272.59;5099434;28;20047;-60
2022/09/07 09:50:16;;;;;;;3.88;1.50;;;;;;;13.15;54.02;99280.94;5082697;28;20031;-61
2022/09/07 09:52:44;;;;;;;6.95;1.95;;;;;;;13.13;53.13;99271.44;5081767;28;20021;-61
2022/09/07 09:55:22;;;;;;;1.90;1.60;;;;;;;13.05;52.59;99233.66;5083677;28;20036;-60
2022/09/07 09:57:57;;;;;;;2.28;1.90;;;;;;;13.30;52.74;99288.16;5082611;28;20221;-61
2022/09/07 10:00:24;;;;;;;3.70;1.88;;;;;;;13.28;53.57;99267.41;5080592;28;20050;-61
2022/09/07 10:03:05;;;;;;;2.10;1.90;;;;;;;13.48;53.37;99267.56;5082865;28;20208;-61
2022/09/07 10:05:40;;;;;;;3.28;1.85;;;;;;;13.60;53.73;99265.31;5083263;28;20052;-61
2022/09/07 10:08:27;;;;;;;1.70;1.60;;;;;;;13.71;52.59;99269.22;5082092;28;20044;-62
2022/09/07 10:11:02;;;;;;;2.05;1.85;;;;;;;13.62;52.36;99268.69;5083126;28;20024;-62
2022/09/07 10:13:33;;;;;;;2.75;1.70;;;;;;;13.70;52.63;99262.34;5084076;28;20024;-61
2022/09/07 10:16:08;;;;;;;3.40;1.92;;;;;;;13.57;52.49;99255.03;5101448;28;20209;-61
2022/09/07 10:18:35;;;;;;;5.03;2.10;;;;;;;13.59;53.13;99265.38;5103707;28;20212;-62
2022/09/07 10:21:24;;;;;;;3.53;1.70;;;;;;;13.31;52.47;99230.03;5086808;28;20024;-61
2022/09/07 10:24:04;;;;;;;2.35;1.70;;;;;;;13.59;52.61;99260.16;5083584;28;20032;-62
2022/09/07 10:26:33;;;;;;;1.85;1.55;;;;;;;13.67;51.91;99289.31;5083551;28;20056;-62
2022/09/07 10:29:13;;;;;;;4.65;1.80;;;;;;;13.02;52.09;99206.03;5083426;28;20028;-62
2022/09/07 10:31:50;;;;;;;3.38;1.60;;;;;;;13.24;52.95;99249.38;5083566;28;20031;-61
2022/09/07 10:34:37;;;;;;;3.13;1.38;;;;;;;13.05;53.66;99211.09;5083538;28;20028;-61
2022/09/07 10:37:07;;;;;;;5.22;1.55;;;;;;;12.91;54.44;99218.59;5083339;28;20096;-61
2022/09/07 10:39:42;;;;;;;6.03;5.40;;;;;;;12.92;53.69;99208.13;5082447;28;20070;-62
2022/09/07 10:42:08;;;;;;;2.05;1.80;;;;;;;13.25;53.50;99272.75;5093659;28;20043;-61
2022/09/07 10:44:36;;;;;;;1.60;1.50;;;;;;;13.20;53.64;99277.25;5097880;28;20032;-60
2022/09/07 10:47:18;;;;;;;2.65;1.60;;;;;;;13.18;54.30;99275.63;5082913;28;20270;-61
2022/09/07 10:50:07;;;;;;;1.77;1.67;;;;;;;12.82;53.60;99222.38;5082839;28;20077;-61
2022/09/07 10:52:54;;;;;;;2.90;2.10;;;;;;;13.02;54.99;99276.22;5062945;28;20105;-60
2022/09/07 10:55:38;;;;;;;1.77;1.67;;;;;;;12.68;56.36;99229.88;5071530;28;20093;-61
2022/09/07 10:58:16;;;;;;;1.73;1.50;;;;;;;12.91;55.94;99273.16;5081530;28;20075;-61
2022/09/07 11:01:26;;;;;;;2.15;1.60;;;;;;;12.95;56.03;99282.53;5098416;28;20070;-61
2022/09/07 11:04:09;;;;;;;3.97;1.70;;;;;;;12.88;57.40;99275.88;5074053;28;20047;-60
2022/09/07 11:06:40;;;;;;;3.75;1.80;;;;;;;12.83;58.38;99276.06;5080542;28;20016;-60
2022/09/07 11:09:26;;;;;;;1.95;1.75;;;;;;;12.82;58.23;99273.53;5092325;28;20035;-60
2022/09/07 11:12:08;;;;;;;3.88;1.90;;;;;;;12.79;59.77;99274.47;5095037;28;20033;-60
2022/09/07 11:14:46;;;;;;;3.28;2.00;;;;;;;12.77;60.25;99287.53;5082732;28;20297;-61
2022/09/07 11:17:16;;;;;;;2.45;1.60;;;;;;;12.59;62.56;99283.84;5082776;28;20389;-60
2022/09/07 11:20:09;;;;;;;2.55;1.90;;;;;;;12.54;63.56;99270.19;5082606;28;20228;-61
2022/09/07 11:22:44;;;;;;;2.17;1.70;;;;;;;12.55;64.85;99281.44;5079720;28;20034;-60
2022/09/07 11:25:39;;;;;;;2.45;2.25;;;;;;;11.94;63.24;99215.19;5082057;28;20028;-61
2022/09/07 11:28:20;;;;;;;3.63;2.45;;;;;;;11.95;66.18;99229.03;5080085;28;20073;-60
2022/09/07 11:30:50;;;;;;;3.40;2.33;;;;;;;12.26;66.15;99294.53;5082306;28;20352;-61
2022/09/07 11:33:24;;;;;;;2.75;2.28;;;;;;;12.06;69.72;99282.25;5083618;28;20032;-61
2022/09/07 11:35:58;;;;;;;7.18;2.80;;;;;;;11.94;69.60;99274.03;5082130;28;20056;-60
2022/09/07 11:38:34;;;;;;;6.07;2.85;;;;;;;11.61;72.68;99235.31;5079588;28;20360;-60
2022/09/07 11:41:24;;;;;;;5.45;2.85;;;;;;;11.70;74.06;99300.72;5080437;28;20033;-61
2022/09/07 11:44:17;;;;;;;6.05;2.63;;;;;;;11.65;74.69;99293.97;5081339;28;20017;-60
2022/09/07 11:46:46;;;;;;;3.42;2.33;;;;;;;11.24;75.27;99250.28;5079688;28;20074;-60
2022/09/07 11:49:19;;;;;;;2.65;2.30;;;;;;;11.55;74.61;99293.41;5081726;28;20344;-60
2022/09/07 11:52:00;;;;;;;5.82;2.20;;;;;;;11.48;75.49;99310.91;5085677;28;20217;-61
2022/09/07 11:54:47;;;;;;;2.80;2.40;;;;;;;11.47;75.13;99296.25;5086245;28;20104;-61
2022/09/07 11:57:59;;;;;;;2.85;2.15;;;;;;;11.40;74.90;99297.31;5076429;28;20032;-61
2022/09/07 12:00:39;;;;;;;4.82;2.67;;;;;;;11.41;74.61;99291.25;5084210;28;20336;-61